Time;durP1;ratioP1;P1;durP2;ratioP2;P2;SDS_P1;SDS_P2;PMS_P1;PMS_P2;Temp;Humidity;BMP_temperature;BMP_pressure;BME280_temperature;BME280_humidity;BME280_pressure;Samples;Min_cycle;Max_cycle;Signal;HPM_P1;HPM_P2
2023/01/24 00:00:49;;;;;;;51.55;19.73;;;;;;;-5.95;73.55;101588.97;4846450;29;20065;-84
2023/01/24 00:03:15;;;;;;;52.50;20.45;;;;;;;-5.96;73.54;101576.81;4861894;29;20068;-83
2023/01/24 00:05:43;;;;;;;42.85;18.98;;;;;;;-5.89;73.03;101576.94;4861602;29;20049;-84
2023/01/24 00:08:12;;;;;;;40.80;17.38;;;;;;;-5.87;72.55;101580.47;4846119;29;20105;-83
2023/01/24 00:10:39;;;;;;;46.08;18.85;;;;;;;-5.81;72.20;101579.72;4845854;29;20537;-84
2023/01/24 00:13:05;;;;;;;45.20;21.15;;;;;;;-5.73;72.20;101578.16;4848884;29;20054;-84
2023/01/24 00:15:32;;;;;;;41.95;18.00;;;;;;;-5.70;71.48;101573.03;4894515;29;20456;-84
2023/01/24 00:17:58;;;;;;;39.85;20.02;;;;;;;-5.67;71.12;101567.88;4883874;29;20459;-84
2023/01/24 00:20:24;;;;;;;43.67;18.90;;;;;;;-5.66;70.64;101569.63;4883564;29;20189;-86
2023/01/24 00:22:50;;;;;;;39.10;19.40;;;;;;;-5.65;70.41;101570.50;4901361;29;20072;-84
2023/01/24 00:25:16;;;;;;;34.88;17.33;;;;;;;-5.68;70.45;101558.31;4909535;29;20457;-85
2023/01/24 00:27:42;;;;;;;38.38;18.63;;;;;;;-5.62;69.77;101571.47;4907365;29;20562;-84
2023/01/24 00:30:09;;;;;;;38.50;18.40;;;;;;;-5.58;69.61;101561.09;4887315;29;20052;-83
2023/01/24 00:32:35;;;;;;;44.67;18.65;;;;;;;-5.64;69.31;101557.53;4873015;29;20173;-84
2023/01/24 00:35:00;;;;;;;32.75;17.65;;;;;;;-5.62;69.06;101567.97;4886666;29;20157;-84
2023/01/24 00:37:27;;;;;;;36.60;18.17;;;;;;;-5.61;68.99;101568.00;4867885;29;20048;-84
2023/01/24 00:39:53;;;;;;;40.20;18.73;;;;;;;-5.67;68.78;101552.25;4900891;29;20104;-84
2023/01/24 00:42:19;;;;;;;35.53;17.58;;;;;;;-5.69;68.82;101548.72;4883748;29;20044;-83
2023/01/24 00:44:44;;;;;;;36.55;17.90;;;;;;;-5.67;68.86;101552.25;4867829;29;20044;-84
2023/01/24 00:47:11;;;;;;;35.80;17.95;;;;;;;-5.64;68.95;101557.53;4883125;29;20048;-84
2023/01/24 00:49:36;;;;;;;35.53;18.83;;;;;;;-5.73;68.75;101535.59;4898563;29;20079;-85
2023/01/24 00:52:02;;;;;;;32.72;18.38;;;;;;;-5.65;68.63;101540.13;4898104;29;20485;-85
2023/01/24 00:54:28;;;;;;;39.10;19.13;;;;;;;-5.58;68.57;101548.97;4898997;29;20493;-84
2023/01/24 00:56:54;;;;;;;37.22;19.10;;;;;;;-5.53;68.23;101555.13;4900396;29;20048;-83
2023/01/24 00:59:20;;;;;;;42.17;19.70;;;;;;;-5.52;67.81;101545.63;4883113;29;20048;-84
2023/01/24 01:01:46;;;;;;;41.55;19.33;;;;;;;-5.58;68.01;101540.25;4889621;29;20051;-84
2023/01/24 01:04:11;;;;;;;35.28;18.00;;;;;;;-5.53;67.96;101549.03;4888998;29;20048;-83
2023/01/24 01:06:37;;;;;;;36.92;19.27;;;;;;;-5.53;68.07;101538.63;4908683;29;20055;-84
2023/01/24 01:09:04;;;;;;;34.45;17.70;;;;;;;-5.53;68.03;101538.63;4868356;29;20045;-85
2023/01/24 01:11:30;;;;;;;36.80;18.60;;;;;;;-5.54;68.17;101526.44;4884015;29;20139;-83
2023/01/24 01:13:59;;;;;;;38.10;17.52;;;;;;;-5.61;67.99;101525.44;4898949;29;20045;-84
2023/01/24 01:16:25;;;;;;;36.78;16.80;;;;;;;-5.79;69.02;101522.44;4867687;29;20520;-85
2023/01/24 01:18:54;;;;;;;40.17;17.05;;;;;;;-5.76;68.61;101526.00;4885384;29;20056;-84
2023/01/24 01:21:21;;;;;;;35.05;17.75;;;;;;;-5.71;68.94;101528.72;4902394;29;20048;-85
2023/01/24 01:23:47;;;;;;;34.00;15.48;;;;;;;-5.75;69.38;101517.34;4902306;29;20079;-85
2023/01/24 01:26:16;;;;;;;33.13;16.75;;;;;;;-5.63;69.12;101528.03;4917192;29;20081;-86
2023/01/24 01:28:42;;;;;;;33.38;17.55;;;;;;;-5.56;69.25;101515.13;4917145;29;20043;-82
2023/01/24 01:31:08;;;;;;;34.10;17.88;;;;;;;-5.65;69.59;101516.69;4917520;29;20047;-82
2023/01/24 01:33:35;;;;;;;37.50;18.05;;;;;;;-5.78;69.57;101514.69;4918404;29;20055;-84
2023/01/24 01:36:00;;;;;;;38.60;17.83;;;;;;;-5.83;69.53;101521.50;4900961;29;20404;-83
2023/01/24 01:38:27;;;;;;;45.67;18.02;;;;;;;-5.89;70.10;101521.38;4910828;29;20048;-82
2023/01/24 01:40:54;;;;;;;52.72;19.23;;;;;;;-6.04;71.14;101508.06;4890408;29;20048;-85
2023/01/24 01:43:22;;;;;;;41.90;18.08;;;;;;;-5.98;70.48;101513.38;4898131;29;20135;-93
2023/01/24 01:45:51;;;;;;;38.97;17.30;;;;;;;-6.03;71.04;101504.59;4898560;29;20139;-82
2023/01/24 01:48:41;;;;;;;44.13;17.63;;;;;;;-6.11;71.74;101504.44;4897682;29;20277;-80
2023/01/24 01:51:18;;;;;;;40.33;17.48;;;;;;;-6.11;71.64;101494.03;4866977;29;20491;-81
2023/01/24 01:53:57;;;;;;;39.53;17.05;;;;;;;-6.04;71.38;101487.22;4868253;29;20045;-86
2023/01/24 01:56:22;;;;;;;35.38;16.67;;;;;;;-6.03;71.42;101488.97;4882629;29;20089;-86
2023/01/24 01:58:49;;;;;;;37.05;17.27;;;;;;;-6.06;71.69;101487.19;4897834;29;20087;-80
2023/01/24 02:01:15;;;;;;;41.58;17.40;;;;;;;-6.07;72.03;101498.44;4898153;29;20049;-88
2023/01/24 02:03:48;;;;;;;39.55;16.98;;;;;;;-6.16;72.21;101486.13;4897138;29;20641;-77
2023/01/24 02:06:45;;;;;;;40.15;16.95;;;;;;;-6.31;72.29;101477.97;4882027;29;20044;-86
2023/01/24 02:09:16;;;;;;;45.03;18.02;;;;;;;-6.27;72.68;101490.22;4882668;29;20080;-80
2023/01/24 02:11:43;;;;;;;36.88;16.00;;;;;;;-6.35;73.61;101491.75;4897531;29;20092;-81
2023/01/24 02:16:58;;;;;;;46.83;16.65;;;;;;;-6.36;73.26;101474.38;4898806;29;20041;-81
2023/01/24 02:19:31;;;;;;;53.22;18.38;;;;;;;-6.40;73.64;101477.75;4881232;29;20524;-84
2023/01/24 02:22:07;;;;;;;52.00;19.42;;;;;;;-6.40;73.50;101464.72;4898845;29;20108;-79
2023/01/24 02:24:42;;;;;;;43.97;18.13;;;;;;;-6.27;73.41;101477.19;4897211;29;20163;-81
2023/01/24 02:27:08;;;;;;;43.55;18.85;;;;;;;-6.26;73.47;101471.13;4881502;29;20048;-86
2023/01/24 02:29:34;;;;;;;39.92;16.55;;;;;;;-6.33;73.63;101479.66;4881303;29;20460;-83
2023/01/24 02:32:05;;;;;;;55.05;19.00;;;;;;;-6.38;74.10;101479.53;4897241;29;20078;-82
2023/01/24 02:34:31;;;;;;;50.85;19.42;;;;;;;-6.37;74.34;101493.44;4881608;29;20544;-82
2023/01/24 02:37:03;;;;;;;56.38;20.83;;;;;;;-6.31;73.96;101488.38;4897226;29;20143;-82
2023/01/24 02:39:55;;;;;;;53.70;21.10;;;;;;;-6.16;73.59;101475.72;4882449;29;20045;-85
2023/01/24 02:42:26;;;;;;;50.08;19.02;;;;;;;-6.40;74.70;101481.22;4876312;29;20618;-83
2023/01/24 02:45:20;;;;;;;59.80;21.10;;;;;;;-6.34;74.45;101480.50;4865825;29;20040;-83
2023/01/24 02:47:48;;;;;;;49.70;20.92;;;;;;;-6.25;74.88;101466.81;4849931;29;20096;-83
2023/01/24 02:50:19;;;;;;;56.00;20.85;;;;;;;-6.12;74.34;101463.63;4866029;29;20095;-84
2023/01/24 02:55:33;;;;;;;64.40;22.30;;;;;;;-6.04;73.59;101464.69;4883399;29;20077;-83
2023/01/24 02:58:06;;;;;;;59.05;22.35;;;;;;;-5.96;73.72;101468.31;4881935;29;20048;-83
2023/01/24 03:00:41;;;;;;;61.35;21.48;;;;;;;-6.06;74.06;101465.47;4881218;29;20044;-83
2023/01/24 03:03:10;;;;;;;74.32;22.80;;;;;;;-6.07;73.99;101466.34;4882059;29;20080;-84
2023/01/24 03:05:39;;;;;;;66.82;23.35;;;;;;;-6.00;73.98;101469.09;4881426;29;20044;-84
2023/01/24 03:08:09;;;;;;;61.92;22.70;;;;;;;-5.96;74.02;101470.03;4881879;29;20053;-86
2023/01/24 03:10:35;;;;;;;56.17;22.27;;;;;;;-6.01;74.03;101482.97;4903825;29;20386;-84
2023/01/24 03:34:59;;;;;;;70.55;23.20;;;;;;;-5.81;73.74;101475.53;4884640;29;20452;-84
2023/01/24 03:40:16;;;;;;;65.63;22.77;;;;;;;-5.59;73.92;101476.84;4900200;29;20056;-83
2023/01/24 03:42:47;;;;;;;60.17;24.15;;;;;;;-5.50;73.54;101470.94;4883980;29;20052;-84
2023/01/24 03:45:19;;;;;;;52.03;22.15;;;;;;;-5.47;73.03;101486.63;4900397;29;20071;-83
2023/01/24 03:47:56;;;;;;;56.50;20.60;;;;;;;-5.61;72.79;101479.41;4868810;29;20047;-83
2023/01/24 03:53:13;;;;;;;59.80;22.85;;;;;;;-5.72;73.08;101472.22;4885500;29;20048;-84
2023/01/24 03:55:42;;;;;;;70.97;25.83;;;;;;;-5.82;73.45;101483.34;4884550;29;20048;-88
2023/01/24 03:58:11;;;;;;;61.05;23.90;;;;;;;-5.84;73.66;101475.47;4903769;29;20567;-86
2023/01/24 04:00:39;;;;;;;63.45;26.23;;;;;;;-5.77;73.60;101477.34;4899400;29;20057;-84
2023/01/24 04:03:19;;;;;;;64.65;25.63;;;;;;;-5.62;73.78;101482.00;4899796;29;20088;-83
2023/01/24 04:05:47;;;;;;;80.78;30.80;;;;;;;-5.55;73.64;101476.06;4853090;29;20532;-82
2023/01/24 04:08:14;;;;;;;89.90;33.13;;;;;;;-5.71;73.07;101477.50;4883889;29;20087;-83
2023/01/24 04:10:40;;;;;;;67.78;27.33;;;;;;;-5.99;73.78;101480.38;4884104;29;20061;-83
2023/01/24 04:13:09;;;;;;;72.43;26.15;;;;;;;-6.16;74.54;101480.91;4888906;29;20093;-83
2023/01/24 04:15:36;;;;;;;76.60;27.90;;;;;;;-6.23;74.47;101486.81;4907743;29;20055;-84
2023/01/24 04:18:24;;;;;;;81.40;28.23;;;;;;;-5.98;74.43;101476.94;4928626;29;20044;-82
2023/01/24 04:20:50;;;;;;;71.78;28.23;;;;;;;-5.80;73.91;101482.50;4919763;29;20115;-86
2023/01/24 04:23:20;;;;;;;71.75;27.15;;;;;;;-5.66;73.91;101482.78;4918398;29;20511;-81
2023/01/24 04:25:56;;;;;;;72.57;29.67;;;;;;;-5.57;73.47;101484.69;4917133;29;20484;-82
2023/01/24 04:28:24;;;;;;;54.80;28.33;;;;;;;-5.54;73.07;101484.75;4935196;29;20048;-82
2023/01/24 04:30:59;;;;;;;63.83;30.10;;;;;;;-5.43;72.19;101484.13;4918146;29;20055;-82
2023/01/24 04:33:41;;;;;;;69.32;28.67;;;;;;;-5.39;71.39;101478.09;4893857;29;20537;-88
2023/01/24 04:36:09;;;;;;;66.63;29.05;;;;;;;-5.32;71.43;101492.16;4905420;29;20052;-85
2023/01/24 04:38:36;;;;;;;67.50;28.98;;;;;;;-5.30;70.82;101485.25;5103023;23;20090;-86
2023/01/24 04:41:14;;;;;;;61.80;28.80;;;;;;;-5.30;70.58;101469.59;4944857;29;20070;-85
2023/01/24 04:43:42;;;;;;;62.90;29.20;;;;;;;-5.31;70.01;101462.63;4923062;29;20111;-90
2023/01/24 04:46:08;;;;;;;70.03;28.92;;;;;;;-5.17;69.86;101479.41;4930735;29;20099;-90
2023/01/24 04:48:50;;;;;;;64.50;30.20;;;;;;;-5.20;69.12;101471.50;4930634;29;20051;-83
2023/01/24 04:51:16;;;;;;;65.85;29.98;;;;;;;-5.19;69.11;101473.28;4910806;29;20070;-85
2023/01/24 04:53:43;;;;;;;76.80;29.73;;;;;;;-5.26;68.94;101481.84;4941963;29;20474;-85
2023/01/24 04:56:14;;;;;;;74.68;27.17;;;;;;;-5.27;69.28;101471.38;4942581;29;20078;-88
2023/01/24 04:58:40;;;;;;;87.20;27.73;;;;;;;-5.19;69.05;101473.28;4927009;29;20121;-89
2023/01/24 05:01:06;;;;;;;74.72;31.95;;;;;;;-5.07;68.70;101475.22;4908691;29;20039;-80
2023/01/24 05:03:37;;;;;;;63.60;29.85;;;;;;;-5.12;68.60;101469.91;4925402;29;20039;-84
2023/01/24 05:06:03;;;;;;;77.88;29.65;;;;;;;-5.13;68.89;101465.56;4937778;29;20048;-88
2023/01/24 05:08:30;;;;;;;95.40;34.30;;;;;;;-5.06;68.87;101468.28;4930636;29;20094;-85
2023/01/24 05:11:02;;;;;;;81.03;29.13;;;;;;;-5.03;68.79;101458.78;4905829;29;20047;-79
2023/01/24 05:13:31;;;;;;;82.75;30.13;;;;;;;-4.98;68.34;101461.47;4917245;29;20528;-82
2023/01/24 05:15:57;;;;;;;91.75;32.65;;;;;;;-4.89;68.45;101456.38;4920995;29;20078;-82
2023/01/24 05:18:23;;;;;;;71.97;27.33;;;;;;;-4.76;68.07;101447.06;4903860;29;20542;-83
2023/01/24 05:20:49;;;;;;;57.67;25.60;;;;;;;-4.78;67.48;101447.00;4920456;29;20048;-87
2023/01/24 05:23:15;;;;;;;63.38;26.77;;;;;;;-4.91;66.96;101445.94;4905188;29;20151;-83
2023/01/24 05:25:44;;;;;;;53.35;24.67;;;;;;;-5.07;66.59;101456.09;4920675;29;20086;-83
2023/01/24 05:28:11;;;;;;;56.75;27.92;;;;;;;-5.30;67.44;101453.97;4920565;29;20051;-88
2023/01/24 05:30:41;;;;;;;62.38;28.40;;;;;;;-5.44;67.72;101439.78;4908953;29;20090;-90
2023/01/24 05:33:18;;;;;;;58.13;27.55;;;;;;;-5.46;67.31;101436.25;4909067;29;20047;-90
2023/01/24 05:35:44;;;;;;;64.70;29.58;;;;;;;-5.39;67.31;101444.22;4906275;29;20404;-86
2023/01/24 05:38:11;;;;;;;56.47;27.73;;;;;;;-5.36;67.86;101443.41;4892796;29;20055;-87
2023/01/24 05:40:39;;;;;;;61.50;27.58;;;;;;;-5.13;67.80;101442.09;4925860;29;20525;-90
2023/01/24 05:43:06;;;;;;;79.72;28.55;;;;;;;-5.03;68.27;101435.31;4893727;29;20051;-87
2023/01/24 05:45:32;;;;;;;74.47;30.23;;;;;;;-4.96;67.19;101454.56;4925298;29;20043;-82
2023/01/24 05:47:58;;;;;;;62.83;28.92;;;;;;;-4.93;67.55;101437.22;4924242;29;20051;-87
2023/01/24 05:50:24;;;;;;;63.13;29.42;;;;;;;-4.72;67.50;101447.13;4912821;29;20044;-86
2023/01/24 05:53:15;;;;;;;54.83;26.67;;;;;;;-4.80;66.50;101440.91;4939516;29;20079;-82
2023/01/24 05:55:44;;;;;;;60.70;27.30;;;;;;;-4.73;66.67;101421.88;4953755;29;20027;-92
2023/01/24 05:58:11;;;;;;;57.95;27.63;;;;;;;-4.51;66.85;101417.00;4939042;29;20044;-90
2023/01/24 06:01:13;;;;;;;85.80;33.53;;;;;;;-4.56;66.05;101426.47;4931196;29;20048;-86
2023/01/24 06:04:04;;;;;;;70.78;30.13;;;;;;;-4.41;66.11;101416.25;4918016;29;20044;-89
2023/01/24 06:06:30;;;;;;;63.50;28.58;;;;;;;-4.23;65.78;101434.78;4926397;29;20082;-87
2023/01/24 06:08:56;;;;;;;81.55;31.27;;;;;;;-4.22;65.66;101420.88;4946711;29;20047;-86
2023/01/24 06:11:24;;;;;;;75.63;31.63;;;;;;;-4.34;65.81;101427.66;4907978;29;20044;-87
2023/01/24 06:13:52;;;;;;;76.27;34.03;;;;;;;-4.28;65.77;101430.38;4922147;29;20047;-88
2023/01/24 06:16:20;;;;;;;70.97;30.20;;;;;;;-4.34;65.89;101431.16;4923754;29;20428;-86
2023/01/24 06:18:48;;;;;;;96.95;32.47;;;;;;;-4.49;66.45;101410.06;4936266;29;20056;-87
2023/01/24 06:21:33;;;;;;;84.90;29.55;;;;;;;-4.25;66.41;101428.69;4936731;29;20039;-86
2023/01/24 06:23:59;;;;;;;82.22;30.45;;;;;;;-4.10;66.21;101424.50;4909000;29;20063;-87
2023/01/24 06:26:37;;;;;;;85.30;32.90;;;;;;;-4.20;65.77;101413.94;4921446;29;20059;-92
2023/01/24 06:29:03;;;;;;;99.93;31.50;;;;;;;-4.21;65.96;101422.66;4920711;29;20043;-89
2023/01/24 06:31:55;;;;;;;92.53;33.55;;;;;;;-4.42;66.44;101417.13;4920603;29;20047;-86
2023/01/24 06:34:26;;;;;;;97.18;32.50;;;;;;;-4.58;66.88;101417.78;4917165;29;20055;-85
2023/01/24 06:37:07;;;;;;;77.32;29.55;;;;;;;-4.54;66.68;101414.34;4904727;29;20056;-87
2023/01/24 06:39:34;;;;;;;85.07;31.53;;;;;;;-4.54;66.69;101412.59;4903798;29;20583;-87
2023/01/24 06:42:00;;;;;;;83.00;32.42;;;;;;;-4.42;66.64;101409.28;4919768;29;20075;-87
2023/01/24 06:44:26;;;;;;;85.35;30.30;;;;;;;-4.46;66.70;101412.72;4936503;29;20147;-86
2023/01/24 06:46:52;;;;;;;76.72;31.63;;;;;;;-4.43;66.58;101399.72;4936484;29;20547;-87
2023/01/24 06:49:18;;;;;;;88.95;32.10;;;;;;;-4.42;66.61;101422.34;4903789;29;20093;-93
2023/01/24 06:51:52;;;;;;;62.90;26.85;;;;;;;-4.51;66.84;101407.44;4888346;29;20179;-85
2023/01/24 06:54:18;;;;;;;75.13;28.33;;;;;;;-4.62;67.19;101411.63;4903771;29;20090;-86
2023/01/24 06:56:44;;;;;;;74.03;27.30;;;;;;;-4.58;67.32;101410.81;4919327;29;20048;-88
2023/01/24 06:59:10;;;;;;;74.00;27.67;;;;;;;-4.54;67.41;101411.75;4919997;29;20052;-86
2023/01/24 07:01:36;;;;;;;60.50;22.73;;;;;;;-4.55;67.24;101408.25;4919552;29;20495;-87
2023/01/24 07:04:02;;;;;;;61.45;22.90;;;;;;;-4.53;67.83;101409.13;4904309;29;20039;-88
2023/01/24 07:06:28;;;;;;;57.65;21.73;;;;;;;-4.37;67.29;101407.63;4889026;29;20455;-88
2023/01/24 07:08:54;;;;;;;50.92;20.33;;;;;;;-4.42;66.65;101417.13;4903057;29;20039;-87
2023/01/24 07:11:22;;;;;;;60.65;22.35;;;;;;;-4.27;66.65;101412.13;4902720;29;20155;-84
2023/01/24 07:13:48;;;;;;;57.08;20.95;;;;;;;-4.12;66.70;101415.78;4903018;29;20499;-85
2023/01/24 07:16:14;;;;;;;53.20;21.77;;;;;;;-3.85;66.38;101421.34;4936298;29;20048;-88
2023/01/24 07:18:40;;;;;;;62.17;23.52;;;;;;;-3.69;65.69;101417.16;4903870;29;20554;-85
2023/01/24 07:21:09;;;;;;;52.00;22.05;;;;;;;-3.50;65.64;101413.94;4920270;29;20076;-87
2023/01/24 07:23:36;;;;;;;;;;;;;;;-3.27;65.48;101416.78;4919735;29;20119;-83
2023/01/24 07:26:03;;;;;;;63.08;24.38;;;;;;;-3.26;64.34;101417.63;4904198;29;19958;-87
2023/01/24 07:28:29;;;;;;;63.50;23.10;;;;;;;-3.32;64.45;101402.75;4920521;29;20044;-86
2023/01/24 07:30:55;;;;;;;64.68;25.23;;;;;;;-3.37;64.18;101409.69;4935693;29;20522;-87
2023/01/24 07:33:21;;;;;;;58.10;23.25;;;;;;;-3.23;64.37;101402.84;4919602;29;20475;-85
2023/01/24 07:35:47;;;;;;;60.92;23.58;;;;;;;-3.35;63.95;101407.94;4848158;29;20068;-88
2023/01/24 07:38:13;;;;;;;76.30;24.38;;;;;;;-3.39;64.33;101414.00;4881036;29;20060;-85
2023/01/24 07:40:39;;;;;;;64.63;24.63;;;;;;;-3.42;64.04;101386.13;4876871;29;20158;-90
2023/01/24 07:43:05;;;;;;;78.07;25.08;;;;;;;-3.16;64.65;101401.16;4861802;29;20163;-89
2023/01/24 07:45:34;;;;;;;70.75;25.95;;;;;;;-2.85;64.84;101393.56;4862412;29;20084;-87
2023/01/24 07:48:00;;;;;;;83.38;25.75;;;;;;;-2.62;63.92;101391.13;4877534;29;20057;-87
2023/01/24 07:50:27;;;;;;;76.80;28.38;;;;;;;-2.72;63.12;101391.03;4877962;29;20112;-90
2023/01/24 07:52:54;;;;;;;72.53;27.92;;;;;;;-2.66;63.01;101384.13;4862331;29;20041;-88
2023/01/24 07:55:21;;;;;;;77.63;27.92;;;;;;;-2.45;63.13;101384.22;4882323;29;20049;-89
2023/01/24 07:57:47;;;;;;;84.07;30.00;;;;;;;-2.22;62.95;101393.09;4879547;29;20049;-90
2023/01/24 08:00:13;;;;;;;78.78;31.17;;;;;;;-2.00;62.16;101388.81;4862981;29;20513;-89
2023/01/24 08:02:40;;;;;;;78.53;30.88;;;;;;;-2.22;61.14;101390.50;4851980;29;20135;-87
2023/01/24 08:05:06;;;;;;;63.63;28.48;;;;;;;-2.46;61.45;101377.25;4881369;29;20049;-89
2023/01/24 08:07:32;;;;;;;73.47;31.10;;;;;;;-2.49;61.80;101379.84;4889328;29;20033;-89
2023/01/24 08:09:59;;;;;;;90.78;28.55;;;;;;;-2.39;61.88;101373.78;4927810;23;20419;-91
2023/01/24 08:12:25;;;;;;;74.75;30.85;;;;;;;-2.41;61.68;101353.69;4894299;29;20039;-88
2023/01/24 08:14:51;;;;;;;82.18;31.20;;;;;;;-2.46;61.52;101361.53;4920144;29;20110;-89
2023/01/24 08:17:18;;;;;;;76.60;31.00;;;;;;;-2.28;61.99;101361.63;4914355;29;20044;-91
2023/01/24 08:19:44;;;;;;;74.90;32.17;;;;;;;-2.14;61.29;101358.19;4907953;29;20423;-89
2023/01/24 08:22:10;;;;;;;77.10;32.00;;;;;;;-1.94;60.96;101350.41;4910048;29;20040;-91
2023/01/24 08:24:36;;;;;;;74.85;33.00;;;;;;;-1.98;60.82;101339.03;4913212;29;20084;-88
2023/01/24 08:27:05;;;;;;;84.95;34.88;;;;;;;-1.69;61.16;101351.34;4895291;29;20052;-87
2023/01/24 08:29:35;;;;;;;86.20;34.63;;;;;;;-1.71;60.42;101338.22;4936317;29;20043;-90
2023/01/24 08:32:01;;;;;;;87.80;35.45;;;;;;;-1.63;59.87;101343.50;4928961;29;20050;-86
2023/01/24 08:34:26;;;;;;;86.05;33.92;;;;;;;-1.55;59.66;101344.38;4924630;29;20047;-85
2023/01/24 08:36:55;;;;;;;86.97;34.53;;;;;;;-1.88;59.42;101347.78;4920738;29;20044;-80
2023/01/24 08:39:21;;;;;;;86.18;35.38;;;;;;;-1.83;59.93;101335.59;4878180;29;20047;-81
2023/01/24 08:41:50;;;;;;;82.93;36.03;;;;;;;-1.68;59.53;101334.75;4928999;29;20048;-89
2023/01/24 08:44:16;;;;;;;86.32;36.70;;;;;;;-1.65;59.73;101326.91;4914342;29;20020;-88
2023/01/24 08:46:42;;;;;;;81.57;34.33;;;;;;;-1.90;59.20;101329.44;4929976;29;20084;-88
2023/01/24 08:49:12;;;;;;;79.85;35.35;;;;;;;-2.27;59.44;101339.78;4895492;29;20067;-87
2023/01/24 08:51:37;;;;;;;81.25;35.65;;;;;;;-2.39;60.48;101337.13;4897304;29;20075;-88
2023/01/24 08:54:06;;;;;;;94.95;36.15;;;;;;;-1.98;61.03;101323.31;4890791;29;20047;-86
2023/01/24 08:56:34;;;;;;;87.30;36.90;;;;;;;-1.68;59.72;101316.41;4904989;29;20476;-87
2023/01/24 08:58:59;;;;;;;83.95;35.45;;;;;;;-1.76;59.09;101330.38;4901874;29;20043;-82
2023/01/24 09:01:26;;;;;;;84.20;36.30;;;;;;;-1.77;59.86;101338.22;4932709;29;20484;-86
2023/01/24 09:03:54;;;;;;;92.45;40.10;;;;;;;-1.61;59.53;101329.53;4891173;29;20051;-89
2023/01/24 09:06:21;;;;;;;87.22;38.05;;;;;;;-1.41;59.27;101334.78;4931944;29;20137;-85
2023/01/24 09:08:47;;;;;;;92.30;38.65;;;;;;;-1.60;58.69;101314.66;4939882;29;20057;-84
2023/01/24 09:11:13;;;;;;;90.55;35.63;;;;;;;-1.99;58.98;101332.06;4923457;28;20212;-83
2023/01/24 09:13:39;;;;;;;94.38;37.67;;;;;;;-2.32;59.31;101317.09;4939000;29;20125;-81
2023/01/24 09:16:05;;;;;;;79.80;36.45;;;;;;;-2.56;59.88;101318.69;4956195;29;20050;-82
2023/01/24 09:18:31;;;;;;;76.53;35.90;;;;;;;-2.46;60.40;101324.88;4923660;29;20040;-82
2023/01/24 09:21:01;;;;;;;85.63;36.55;;;;;;;-2.31;59.77;101324.94;4927171;29;20050;-83
2023/01/24 09:23:27;;;;;;;84.93;35.53;;;;;;;-2.27;59.59;101318.84;4945022;29;20043;-85
2023/01/24 09:25:53;;;;;;;85.15;37.00;;;;;;;-2.59;60.33;101317.84;4945133;29;20054;-83
2023/01/24 09:28:20;;;;;;;82.00;36.22;;;;;;;-2.20;60.32;101306.66;4944532;29;20043;-84
2023/01/24 09:30:50;;;;;;;79.35;36.15;;;;;;;-2.08;59.53;101316.28;4942359;29;20051;-83
2023/01/24 09:33:17;;;;;;;78.90;34.63;;;;;;;-1.88;59.60;101311.09;4885390;29;20484;-82
2023/01/24 09:36:00;;;;;;;91.25;37.97;;;;;;;-1.76;59.11;101304.16;4916234;29;20066;-83
2023/01/24 09:38:28;;;;;;;77.93;34.75;;;;;;;-2.07;59.05;101297.97;4904042;29;20052;-83
2023/01/24 09:41:21;;;;;;;88.28;37.90;;;;;;;-2.17;59.23;101305.78;4873908;29;20059;-90
2023/01/24 09:43:53;;;;;;;74.72;30.48;;;;;;;-2.50;59.45;101304.78;4904639;29;20140;-83
2023/01/24 09:46:25;;;;;;;61.63;28.55;;;;;;;-2.77;60.07;101309.00;4917525;29;20127;-85
2023/01/24 09:49:02;;;;;;;91.88;36.83;;;;;;;-2.76;60.69;101315.97;4887081;29;20083;-87
2023/01/24 09:51:32;;;;;;;92.38;39.45;;;;;;;-2.67;60.29;101309.94;4918280;29;20076;-80
2023/01/24 09:54:02;;;;;;;81.05;37.78;;;;;;;-2.72;60.19;101307.28;4917960;29;20052;-88
2023/01/24 09:56:38;;;;;;;85.20;36.05;;;;;;;-2.80;60.50;101314.22;4902452;29;20145;-85
2023/01/24 09:59:18;;;;;;;79.05;36.13;;;;;;;-2.84;60.28;101317.69;4902024;29;20055;-85
2023/01/24 10:01:51;;;;;;;61.20;28.00;;;;;;;-3.15;60.59;101310.50;4917007;29;20075;-86
2023/01/24 10:04:29;;;;;;;52.75;21.77;;;;;;;-3.47;61.01;101303.25;4916733;29;20060;-83
2023/01/24 10:07:23;;;;;;;48.72;21.98;;;;;;;-3.74;61.90;101311.72;4899565;29;20044;-83
2023/01/24 10:10:02;;;;;;;45.95;21.00;;;;;;;-3.85;61.96;101308.13;4883659;29;20056;-83
2023/01/24 10:13:02;;;;;;;43.63;20.52;;;;;;;-3.77;62.13;101303.84;4908080;29;20060;-85
2023/01/24 10:15:47;;;;;;;54.42;23.00;;;;;;;-3.79;62.50;101306.47;4883323;29;20051;-84
2023/01/24 10:18:34;;;;;;;50.67;20.70;;;;;;;-4.01;63.67;101307.97;4916203;29;20064;-85
2023/01/24 10:21:43;;;;;;;38.95;19.10;;;;;;;-3.66;62.76;101308.31;4885492;29;20044;-84
2023/01/24 10:24:17;;;;;;;48.85;19.63;;;;;;;-3.45;62.27;101315.47;4902853;29;20405;-86
2023/01/24 10:26:51;;;;;;;49.72;19.38;;;;;;;-3.46;62.00;101310.22;4919319;29;20060;-85
2023/01/24 10:29:21;;;;;;;76.53;24.38;;;;;;;-3.47;62.24;101298.03;4883021;29;20064;-90
2023/01/24 10:37:41;;;;;;;55.58;20.88;;;;;;;-2.72;60.97;101307.28;4991816;23;20063;-94
2023/01/24 10:40:15;;;;;;;60.75;22.70;;;;;;;-2.60;60.65;101293.38;4935643;29;20129;-94
2023/01/24 10:42:41;;;;;;;56.08;22.20;;;;;;;-2.65;60.36;101276.78;4954316;29;20066;-91
2023/01/24 10:45:29;;;;;;;60.47;22.02;;;;;;;-2.50;60.41;101299.53;4965995;28;20110;-91
2023/01/24 10:47:59;;;;;;;57.33;22.55;;;;;;;-2.64;60.75;101294.22;4927716;29;20043;-88
2023/01/24 10:50:40;;;;;;;50.72;20.63;;;;;;;-2.54;61.04;101295.16;4962772;29;20065;-87
2023/01/24 10:53:26;;;;;;;55.95;21.60;;;;;;;-2.48;60.67;101301.31;4956837;29;20043;-95
2023/01/24 10:56:04;;;;;;;48.13;20.48;;;;;;;-2.24;60.07;101295.28;4942204;29;20055;-94
2023/01/24 10:58:55;;;;;;;59.97;23.85;;;;;;;-2.03;60.42;101270.00;4929603;29;20035;-90
2023/01/24 11:01:44;;;;;;;61.35;22.38;;;;;;;-1.73;58.98;101282.28;4929716;29;20039;-93
2023/01/24 11:04:28;;;;;;;56.80;22.70;;;;;;;-1.89;58.55;101294.50;4960099;29;20044;-93
2023/01/24 11:06:55;;;;;;;48.55;20.67;;;;;;;-2.11;58.81;101297.94;4926165;29;20047;-92
2023/01/24 11:09:29;;;;;;;60.88;22.75;;;;;;;-2.17;59.31;101295.31;4919710;29;20044;-89
2023/01/24 11:11:57;;;;;;;52.22;22.10;;;;;;;-1.96;58.93;101274.38;4933950;29;20123;-91
2023/01/24 11:14:37;;;;;;;66.78;23.60;;;;;;;-2.20;59.04;101268.22;4938558;29;20110;-92
2023/01/24 11:17:30;;;;;;;60.53;24.73;;;;;;;-2.11;59.21;101306.66;4925039;29;20044;-92
2023/01/24 11:20:16;;;;;;;49.13;19.92;;;;;;;-2.05;58.96;101295.34;4933579;29;20048;-93
2023/01/24 11:22:42;;;;;;;54.85;22.92;;;;;;;-2.05;58.77;101301.44;4945372;29;20051;-89
2023/01/24 11:28:27;;;;;;;57.42;22.83;;;;;;;-2.30;59.49;101287.38;4931949;29;20095;-92
2023/01/24 11:31:00;;;;;;;71.53;22.30;;;;;;;-2.41;59.74;101289.09;4999381;23;20060;-88
2023/01/24 11:33:57;;;;;;;60.33;23.05;;;;;;;-2.38;59.61;101301.34;4914057;29;20052;-90
2023/01/24 11:36:32;;;;;;;59.25;21.38;;;;;;;-2.54;60.08;101292.53;4929027;29;20047;-91
2023/01/24 11:39:07;;;;;;;59.25;22.67;;;;;;;-2.77;60.04;101287.19;5032015;23;20063;-91
2023/01/24 11:41:46;;;;;;;54.15;21.48;;;;;;;-2.86;60.48;101308.06;4954585;23;20072;-88
2023/01/24 11:44:46;;;;;;;59.65;24.52;;;;;;;-3.11;61.29;101283.50;4947822;23;20023;-89
2023/01/24 11:47:17;;;;;;;;;;;;;;;-3.10;61.30;101303.53;4922480;29;20679;-94
2023/01/24 11:49:49;;;;;;;51.35;19.83;;;;;;;-3.46;61.82;101305.00;4950887;29;19954;-95
2023/01/24 11:52:28;;;;;;;65.28;22.75;;;;;;;-3.83;62.82;101296.84;4992510;23;20420;-93
2023/01/24 11:55:20;;;;;;;59.78;24.10;;;;;;;-4.19;63.79;101294.69;4977671;28;20051;-91
2023/01/24 11:58:08;;;;;;;59.67;24.95;;;;;;;-4.17;63.64;101299.09;4928695;29;20518;-93
2023/01/24 12:00:37;;;;;;;70.78;24.85;;;;;;;-4.44;64.71;101298.75;4931304;29;20047;-93
2023/01/24 12:03:13;;;;;;;65.63;26.17;;;;;;;-4.59;64.97;101280.28;4948954;29;20071;-93
2023/01/24 12:06:03;;;;;;;56.70;25.30;;;;;;;-4.59;65.63;101293.34;4948142;29;20123;-93
2023/01/24 12:08:37;;;;;;;56.25;22.35;;;;;;;-4.56;65.33;101294.25;4961367;29;20086;-93